createdAt,value
2019-01-13T00:02:10.407Z,17.83
2019-01-13T00:04:39.652Z,18.80
2019-01-13T00:07:09.385Z,24.47
2019-01-13T00:09:39.248Z,24.77
2019-01-13T00:12:09.111Z,24.30
2019-01-13T00:14:38.949Z,22.83
2019-01-13T00:17:08.840Z,20.63
2019-01-13T00:19:38.719Z,17.90
2019-01-13T00:22:09.736Z,22.13
2019-01-13T00:24:39.769Z,30.07
2019-01-13T00:27:09.819Z,26.90
2019-01-13T00:29:39.632Z,33.80
2019-01-13T00:32:08.983Z,23.03
2019-01-13T00:34:38.686Z,22.33
2019-01-13T00:37:08.652Z,23.87
2019-01-13T00:39:38.502Z,32.80
2019-01-13T00:42:07.868Z,17.17
2019-01-13T00:44:37.565Z,31.40
2019-01-13T00:47:07.384Z,26.00
2019-01-13T00:49:37.277Z,30.33
2019-01-13T00:52:07.100Z,25.80
2019-01-13T00:54:36.927Z,33.00
2019-01-13T00:57:06.828Z,22.93
2019-01-13T00:59:36.653Z,29.57
2019-01-13T01:02:06.122Z,28.97
2019-01-13T01:04:35.389Z,20.37
2019-01-13T01:07:05.598Z,19.43
2019-01-13T01:09:35.374Z,19.10
2019-01-13T01:12:05.311Z,23.17
2019-01-13T01:14:35.252Z,23.73
2019-01-13T01:17:05.270Z,22.43
2019-01-13T01:19:35.203Z,30.33
2019-01-13T01:22:05.352Z,13.50
2019-01-13T01:24:35.304Z,17.67
2019-01-13T01:27:05.343Z,20.43
2019-01-13T01:29:35.459Z,14.30
2019-01-13T01:32:05.555Z,17.63
2019-01-13T01:34:35.581Z,13.57
2019-01-13T01:37:05.594Z,15.37
2019-01-13T01:39:35.439Z,20.53
2019-01-13T01:42:05.413Z,14.50
2019-01-13T01:44:35.491Z,13.03
2019-01-13T01:47:05.508Z,14.83
2019-01-13T01:49:35.429Z,13.83
2019-01-13T01:52:05.577Z,16.30
2019-01-13T01:54:35.455Z,12.30
2019-01-13T01:57:05.485Z,11.57
2019-01-13T01:59:36.005Z,12.47
2019-01-13T02:02:07.576Z,10.63
2019-01-13T02:04:37.437Z,10.93
2019-01-13T02:07:07.429Z,8.60
2019-01-13T02:09:37.343Z,9.97
2019-01-13T02:12:06.783Z,15.53
2019-01-13T02:14:36.531Z,10.63
2019-01-13T02:17:05.980Z,9.63
2019-01-13T02:19:35.233Z,11.90
2019-01-13T02:22:05.100Z,9.60
2019-01-13T02:24:35.100Z,11.03
2019-01-13T02:27:05.153Z,12.60
2019-01-13T02:29:35.023Z,10.67
2019-01-13T02:32:05.031Z,10.90
2019-01-13T02:34:34.883Z,8.47
2019-01-13T02:37:04.847Z,13.13
2019-01-13T02:39:34.774Z,13.53
2019-01-13T02:42:04.760Z,16.03
2019-01-13T02:44:34.319Z,13.60
2019-01-13T02:47:04.035Z,12.13
2019-01-13T02:49:33.470Z,8.90
2019-01-13T02:52:03.639Z,7.90
2019-01-13T02:54:33.862Z,8.13
2019-01-13T02:57:03.784Z,11.17
2019-01-13T02:59:33.151Z,12.43
2019-01-13T03:02:02.917Z,8.10
2019-01-13T03:04:32.866Z,12.20
2019-01-13T03:07:02.222Z,9.33
2019-01-13T03:09:32.175Z,10.43
2019-01-13T03:12:01.605Z,9.30
2019-01-13T03:14:31.372Z,11.77
2019-01-13T03:17:01.201Z,16.87
2019-01-13T03:19:31.040Z,12.90
2019-01-13T03:22:00.845Z,13.90
2019-01-13T03:24:30.668Z,10.30
2019-01-13T03:27:00.106Z,10.13
2019-01-13T03:29:29.866Z,9.07
2019-01-13T03:31:59.689Z,10.73
2019-01-13T03:34:29.485Z,10.93
2019-01-13T03:36:59.382Z,10.37
2019-01-13T03:39:28.753Z,11.50
2019-01-13T03:42:00.626Z,10.93
2019-01-13T03:44:29.958Z,10.53
2019-01-13T03:46:59.738Z,23.13
2019-01-13T03:49:29.580Z,11.47
2019-01-13T03:51:58.963Z,9.87
2019-01-13T03:54:29.628Z,10.17
2019-01-13T03:56:59.321Z,11.17
2019-01-13T03:59:29.080Z,8.90
2019-01-13T04:01:58.904Z,9.27
2019-01-13T04:04:28.775Z,23.40
2019-01-13T04:06:58.593Z,8.00
2019-01-13T04:09:27.957Z,6.50
2019-01-13T04:11:57.197Z,8.60
2019-01-13T04:14:26.746Z,7.93
2019-01-13T04:16:56.692Z,8.83
2019-01-13T04:19:26.460Z,7.00
2019-01-13T04:21:56.421Z,7.80
2019-01-13T04:24:26.263Z,8.67
2019-01-13T04:26:55.632Z,4.43
2019-01-13T04:29:25.331Z,4.83
2019-01-13T04:31:54.671Z,5.30
2019-01-13T04:34:24.354Z,6.97
2019-01-13T04:36:53.720Z,6.57
2019-01-13T04:39:23.409Z,5.33
2019-01-13T04:41:53.569Z,6.60
2019-01-13T04:44:22.930Z,6.20
2019-01-13T04:46:52.176Z,5.60
2019-01-13T04:49:21.867Z,3.67
2019-01-13T04:51:51.695Z,3.57
2019-01-13T04:54:21.588Z,3.57
2019-01-13T04:56:51.419Z,3.23
2019-01-13T04:59:21.233Z,3.40
2019-01-13T05:01:51.120Z,2.23
2019-01-13T05:04:21.093Z,6.13
2019-01-13T05:06:50.913Z,2.83
2019-01-13T05:09:20.745Z,4.60
2019-01-13T05:11:50.569Z,2.50
2019-01-13T05:14:20.384Z,1.83
2019-01-13T05:16:49.992Z,2.40
2019-01-13T05:19:19.720Z,1.93
2019-01-13T05:21:49.088Z,1.63
2019-01-13T05:24:18.798Z,1.73
2019-01-13T05:26:48.597Z,1.23
2019-01-13T05:29:18.429Z,1.10
2019-01-13T05:31:48.325Z,1.17
2019-01-13T05:34:18.149Z,1.40
2019-01-13T05:36:47.509Z,1.40
2019-01-13T05:39:17.195Z,1.70
2019-01-13T05:41:47.341Z,4.90
2019-01-13T05:44:17.180Z,1.73
2019-01-13T05:46:46.628Z,1.07
2019-01-13T05:49:16.332Z,1.70
2019-01-13T05:51:46.191Z,1.30
2019-01-13T05:54:16.016Z,1.93
2019-01-13T05:56:45.853Z,1.70
2019-01-13T05:59:15.661Z,1.70
2019-01-13T06:01:49.160Z,1.63
2019-01-13T06:04:16.993Z,1.63
2019-01-13T06:06:46.816Z,1.30
2019-01-13T06:09:16.637Z,1.37
2019-01-13T06:11:45.999Z,1.33
2019-01-13T06:14:15.696Z,1.40
2019-01-13T06:16:45.524Z,1.50
2019-01-13T06:19:15.345Z,1.40
2019-01-13T06:21:45.404Z,2.33
2019-01-13T06:24:15.465Z,1.27
2019-01-13T06:26:45.297Z,1.60
2019-01-13T06:29:15.123Z,1.67
2019-01-13T06:31:44.560Z,2.97
2019-01-13T06:34:14.260Z,1.50
2019-01-13T06:36:43.721Z,2.17
2019-01-13T06:39:13.784Z,1.77
2019-01-13T06:41:43.487Z,3.87
2019-01-13T06:44:13.314Z,3.47
2019-01-13T06:46:43.129Z,2.13
2019-01-13T06:49:13.023Z,2.47
2019-01-13T06:51:42.849Z,1.83
2019-01-13T06:54:12.693Z,3.07
2019-01-13T06:56:42.534Z,1.70
2019-01-13T06:59:12.381Z,2.27
2019-01-13T07:01:42.536Z,2.43
2019-01-13T07:04:11.921Z,3.00
2019-01-13T07:06:41.898Z,2.73
2019-01-13T07:09:11.268Z,4.97
2019-01-13T07:11:40.517Z,2.80
2019-01-13T07:14:09.834Z,2.73
2019-01-13T07:16:39.925Z,3.07
2019-01-13T07:19:09.857Z,2.60
2019-01-13T07:21:39.664Z,2.23
2019-01-13T07:24:09.533Z,2.70
2019-01-13T07:26:39.344Z,1.33
2019-01-13T07:29:09.316Z,2.90
2019-01-13T07:31:38.748Z,3.33
2019-01-13T07:34:08.056Z,1.63
2019-01-13T07:36:37.752Z,1.97
2019-01-13T07:39:08.309Z,3.27
2019-01-13T07:41:37.667Z,2.47
2019-01-13T07:44:07.392Z,3.73
2019-01-13T07:46:37.476Z,2.30
2019-01-13T07:49:06.856Z,4.67
2019-01-13T07:51:36.556Z,5.45
2019-01-13T07:54:06.443Z,6.00
2019-01-13T07:56:36.336Z,2.53
2019-01-13T07:59:06.488Z,1.87
2019-01-13T08:01:36.296Z,2.87
2019-01-13T08:04:06.249Z,3.80
2019-01-13T08:06:35.680Z,2.57
2019-01-13T08:09:08.312Z,1.50
2019-01-13T08:11:37.681Z,2.87
2019-01-13T08:14:06.920Z,2.50
2019-01-13T08:16:36.164Z,1.90
2019-01-13T08:19:05.476Z,1.30
2019-01-13T08:21:34.792Z,1.57
2019-01-13T08:24:04.088Z,1.30
2019-01-13T08:26:33.776Z,4.43
2019-01-13T08:29:03.140Z,1.47
2019-01-13T08:31:32.829Z,1.20
2019-01-13T08:34:02.264Z,1.40
2019-01-13T08:36:31.508Z,1.33
2019-01-13T08:39:01.189Z,1.93
2019-01-13T08:41:30.552Z,1.30
2019-01-13T08:43:59.796Z,1.10
2019-01-13T08:46:29.040Z,2.10
2019-01-13T08:48:58.265Z,2.03
2019-01-13T08:51:27.960Z,1.47
2019-01-13T08:53:57.324Z,3.30
2019-01-13T08:56:27.026Z,2.00
2019-01-13T08:58:56.372Z,3.83
2019-01-13T09:01:25.637Z,2.97
2019-01-13T09:03:54.853Z,1.27
2019-01-13T09:06:24.172Z,0.90
2019-01-13T09:08:53.400Z,3.30
2019-01-13T09:11:23.250Z,1.33
2019-01-13T09:13:53.064Z,4.53
2019-01-13T09:16:22.968Z,2.00
2019-01-13T09:18:52.329Z,3.53
2019-01-13T09:21:21.635Z,8.93
2019-01-13T09:23:50.872Z,8.43
2019-01-13T09:26:20.193Z,5.33
2019-01-13T09:28:49.429Z,3.80
2019-01-13T09:31:18.656Z,2.77
2019-01-13T09:33:47.985Z,2.30
2019-01-13T09:36:17.213Z,1.57
2019-01-13T09:38:46.916Z,3.27
2019-01-13T09:41:16.280Z,2.13
2019-01-13T09:43:45.514Z,1.77
2019-01-13T09:46:15.340Z,6.70
2019-01-13T09:48:45.144Z,8.27
2019-01-13T09:51:14.496Z,4.80
2019-01-13T09:53:44.289Z,4.37
2019-01-13T09:56:13.644Z,3.57
2019-01-13T09:58:42.882Z,5.67
2019-01-13T10:01:12.109Z,4.67
2019-01-13T10:03:41.349Z,6.93
2019-01-13T10:06:10.693Z,5.87
2019-01-13T10:08:41.333Z,4.13
2019-01-13T10:11:10.632Z,7.57
2019-01-13T10:13:39.874Z,4.43
2019-01-13T10:16:09.701Z,8.87
2019-01-13T10:18:39.373Z,7.07
2019-01-13T10:21:09.525Z,6.57
2019-01-13T10:23:40.370Z,5.03
2019-01-13T10:26:10.247Z,5.33
2019-01-13T10:28:40.678Z,8.87
2019-01-13T10:31:10.359Z,5.97
2019-01-13T10:33:41.216Z,5.50
2019-01-13T10:36:11.011Z,5.10
2019-01-13T10:38:42.349Z,10.43
2019-01-13T10:41:12.181Z,6.43
2019-01-13T10:43:42.383Z,11.77
2019-01-13T10:46:12.083Z,11.67
2019-01-13T10:48:41.376Z,10.60
2019-01-13T10:51:10.693Z,9.90
2019-01-13T10:53:39.931Z,9.93
2019-01-13T10:56:09.841Z,10.00
2019-01-13T10:58:39.644Z,10.63
2019-01-13T11:01:09.079Z,8.60
2019-01-13T11:03:38.764Z,8.80
2019-01-13T11:06:08.740Z,10.57
2019-01-13T11:08:38.544Z,8.23
2019-01-13T11:11:08.515Z,12.03
2019-01-13T11:13:38.824Z,10.10
2019-01-13T11:16:08.678Z,15.87
2019-01-13T11:18:38.028Z,9.60
2019-01-13T11:21:07.721Z,11.10
2019-01-13T11:23:37.655Z,10.97
2019-01-13T11:26:07.616Z,12.27
2019-01-13T11:28:37.465Z,10.43
2019-01-13T11:31:07.253Z,11.97
2019-01-13T11:33:37.148Z,10.23
2019-01-13T11:36:07.036Z,9.77
2019-01-13T11:38:36.840Z,11.57
2019-01-13T11:41:08.004Z,11.00
2019-01-13T11:43:37.815Z,14.23
2019-01-13T11:46:07.793Z,9.87
2019-01-13T11:48:37.997Z,14.23
2019-01-13T11:51:08.084Z,17.83
2019-01-13T11:53:37.911Z,14.50
2019-01-13T11:56:07.832Z,13.73
2019-01-13T11:58:37.715Z,9.67
2019-01-13T12:01:08.175Z,15.70
2019-01-13T12:03:39.200Z,11.87
2019-01-13T12:06:09.142Z,17.73
2019-01-13T12:08:38.484Z,18.43
2019-01-13T12:11:07.729Z,12.47
2019-01-13T12:13:37.412Z,9.90
2019-01-13T12:16:06.865Z,13.30
2019-01-13T12:18:40.477Z,17.20
2019-01-13T12:21:08.144Z,14.33
2019-01-13T12:23:37.965Z,13.00
2019-01-13T12:26:07.941Z,9.50
2019-01-13T12:28:37.760Z,10.57
2019-01-13T12:31:07.725Z,10.17
2019-01-13T12:33:37.548Z,11.67
2019-01-13T12:36:07.432Z,8.47
2019-01-13T12:38:37.361Z,9.90
2019-01-13T12:41:06.748Z,10.93
2019-01-13T12:43:36.511Z,10.83
2019-01-13T12:46:05.935Z,6.53
2019-01-13T12:48:35.625Z,8.63
2019-01-13T12:51:05.525Z,9.93
2019-01-13T12:53:34.888Z,13.20
2019-01-13T12:56:04.821Z,5.13
2019-01-13T12:58:34.686Z,5.57
2019-01-13T13:01:04.267Z,10.37
2019-01-13T13:03:33.636Z,3.67
2019-01-13T13:06:02.997Z,4.17
2019-01-13T13:08:32.276Z,9.70
2019-01-13T13:11:01.668Z,2.27
2019-01-13T13:13:30.921Z,4.60
2019-01-13T13:16:00.876Z,4.70
2019-01-13T13:18:30.220Z,6.63
2019-01-13T13:20:59.905Z,2.63
2019-01-13T13:23:29.908Z,1.83
2019-01-13T13:25:59.730Z,1.93
2019-01-13T13:28:29.004Z,5.30
2019-01-13T13:30:58.301Z,3.93
2019-01-13T13:33:27.544Z,2.83
2019-01-13T13:35:56.930Z,3.50
2019-01-13T13:38:26.797Z,2.77
2019-01-13T13:40:56.749Z,4.57
2019-01-13T13:43:32.373Z,6.27
2019-01-13T13:46:03.157Z,4.23
2019-01-13T13:48:33.096Z,4.63
2019-01-13T13:51:03.024Z,4.67
2019-01-13T13:53:32.881Z,8.10
2019-01-13T13:56:02.349Z,4.57
2019-01-13T13:58:32.039Z,5.63
2019-01-13T14:01:01.913Z,6.00
2019-01-13T14:03:31.344Z,4.13
2019-01-13T14:06:01.112Z,3.10
2019-01-13T14:08:30.960Z,7.77
2019-01-13T14:11:00.889Z,2.07
2019-01-13T14:13:30.708Z,0.90
2019-01-13T14:16:00.680Z,2.57
2019-01-13T14:18:30.037Z,5.47
2019-01-13T14:21:00.114Z,1.10
2019-01-13T14:23:29.923Z,1.37
2019-01-13T14:25:59.832Z,2.13
2019-01-13T14:28:29.641Z,2.57
2019-01-13T14:31:00.016Z,5.03
2019-01-13T14:33:29.244Z,2.20
2019-01-13T14:35:58.563Z,1.83
2019-01-13T14:38:28.196Z,4.87
2019-01-13T14:40:57.501Z,3.73
2019-01-13T14:43:26.813Z,5.23
2019-01-13T14:45:56.488Z,2.83
2019-01-13T14:48:25.849Z,3.17
2019-01-13T14:50:55.517Z,2.30
2019-01-13T14:53:24.886Z,6.90
2019-01-13T14:55:56.161Z,10.93
2019-01-13T14:58:26.186Z,3.57
2019-01-13T15:00:55.977Z,7.10
2019-01-13T15:03:25.861Z,3.20
2019-01-13T15:05:55.220Z,6.97
2019-01-13T15:08:24.903Z,1.10
2019-01-13T15:10:54.917Z,1.70
2019-01-13T15:13:25.072Z,1.93
2019-01-13T15:15:54.945Z,4.07
2019-01-13T15:18:24.288Z,1.77
2019-01-13T15:20:54.069Z,4.13
2019-01-13T15:23:23.869Z,2.97
2019-01-13T15:25:53.681Z,3.40
2019-01-13T15:28:23.928Z,2.93
2019-01-13T15:30:53.832Z,2.77
2019-01-13T15:33:23.752Z,1.17
2019-01-13T15:35:53.662Z,1.27
2019-01-13T15:38:23.080Z,1.93
2019-01-13T15:40:53.013Z,2.03
2019-01-13T15:43:22.364Z,3.83
2019-01-13T15:45:51.688Z,3.67
2019-01-13T15:48:21.496Z,2.90
2019-01-13T15:50:51.578Z,3.17
2019-01-13T15:53:21.382Z,3.80
2019-01-13T15:55:51.250Z,6.30
2019-01-13T15:58:20.631Z,3.50
2019-01-13T16:00:50.322Z,2.93
2019-01-13T16:03:20.135Z,3.80
2019-01-13T16:05:49.492Z,4.53
2019-01-13T16:08:19.177Z,3.93
2019-01-13T16:10:49.060Z,3.50
2019-01-13T16:13:19.178Z,2.20
2019-01-13T16:15:49.024Z,2.13
2019-01-13T16:18:18.393Z,1.47
2019-01-13T16:20:48.156Z,2.70
2019-01-13T16:23:17.957Z,1.70
2019-01-13T16:25:47.897Z,1.57
2019-01-13T16:28:17.715Z,2.10
2019-01-13T16:30:47.835Z,1.50
2019-01-13T16:33:17.646Z,2.30
2019-01-13T16:35:47.520Z,2.47
2019-01-13T16:38:17.320Z,3.03
2019-01-13T16:40:47.139Z,4.33
2019-01-13T16:43:17.188Z,4.10
2019-01-13T16:45:47.004Z,2.57
2019-01-13T16:48:16.865Z,2.50
2019-01-13T16:50:46.688Z,6.20
2019-01-13T16:53:17.928Z,9.37
2019-01-13T16:55:47.810Z,4.70
2019-01-13T16:58:17.752Z,3.67
2019-01-13T17:00:47.636Z,6.33
2019-01-13T17:03:23.268Z,8.40
2019-01-13T17:05:53.088Z,5.13
2019-01-13T17:08:22.561Z,9.63
2019-01-13T17:10:51.868Z,5.73
2019-01-13T17:13:21.660Z,4.90
2019-01-13T17:15:51.480Z,14.37
2019-01-13T17:18:20.837Z,3.43
2019-01-13T17:20:50.585Z,4.47
2019-01-13T17:23:20.468Z,4.27
2019-01-13T17:25:50.268Z,5.50
2019-01-13T17:28:20.341Z,7.37
2019-01-13T17:30:50.149Z,10.10
2019-01-13T17:33:20.085Z,9.70
2019-01-13T17:35:49.428Z,3.80
2019-01-13T17:38:19.184Z,7.70
2019-01-13T17:40:49.068Z,10.30
2019-01-13T17:43:18.885Z,8.87
2019-01-13T17:45:48.781Z,8.10
2019-01-13T17:48:18.219Z,7.40
2019-01-13T17:50:47.904Z,11.43
2019-01-13T17:53:17.729Z,16.10
2019-01-13T17:55:47.091Z,7.90
2019-01-13T17:58:16.341Z,9.10
2019-01-13T18:00:59.324Z,6.50
2019-01-13T18:03:41.933Z,9.17
2019-01-13T18:06:11.367Z,16.40
2019-01-13T18:08:40.600Z,9.93
2019-01-13T18:11:09.847Z,13.43
2019-01-13T18:13:39.234Z,16.95
2019-01-13T18:16:08.999Z,15.50
2019-01-13T18:18:38.455Z,13.03
2019-01-13T18:21:08.556Z,11.20
2019-01-13T18:23:38.391Z,10.33
2019-01-13T18:26:08.300Z,13.33
2019-01-13T18:28:38.139Z,6.60
2019-01-13T18:31:07.565Z,10.23
2019-01-13T18:33:36.890Z,9.13
2019-01-13T18:36:06.201Z,8.67
2019-01-13T18:38:35.491Z,20.00
2019-01-13T18:41:04.829Z,19.17
2019-01-13T18:43:34.643Z,11.87
2019-01-13T18:46:04.534Z,5.67
2019-01-13T18:48:34.049Z,12.03
2019-01-13T18:51:03.808Z,7.93
2019-01-13T18:53:34.121Z,6.27
2019-01-13T18:56:04.101Z,5.93
2019-01-13T18:58:35.603Z,8.57
2019-01-13T19:01:06.044Z,12.90
2019-01-13T19:03:35.872Z,6.67
2019-01-13T19:06:05.821Z,10.00
2019-01-13T19:08:36.506Z,6.83
2019-01-13T19:11:11.226Z,5.87
2019-01-13T19:13:44.240Z,4.47
2019-01-13T19:16:17.287Z,6.70
2019-01-13T19:18:46.657Z,9.97
2019-01-13T19:21:16.340Z,3.30
2019-01-13T19:23:46.153Z,6.40
2019-01-13T19:26:15.971Z,7.33
2019-01-13T19:28:45.563Z,5.50
2019-01-13T19:31:15.511Z,4.67
2019-01-13T19:33:45.388Z,4.67
2019-01-13T19:36:15.197Z,5.93
2019-01-13T19:38:45.268Z,7.33
2019-01-13T19:41:15.181Z,1.83
2019-01-13T19:43:44.882Z,1.77
2019-01-13T19:46:14.229Z,6.43
2019-01-13T19:48:43.537Z,17.03
2019-01-13T19:51:13.221Z,10.53
2019-01-13T19:53:42.598Z,8.07
2019-01-13T19:56:11.837Z,12.87
2019-01-13T19:58:41.149Z,10.37
2019-01-13T20:01:10.929Z,6.97
2019-01-13T20:03:40.894Z,11.50
2019-01-13T20:06:10.856Z,9.17
2019-01-13T20:08:40.824Z,2.63
2019-01-13T20:11:10.718Z,6.07
2019-01-13T20:13:40.524Z,0.80
2019-01-13T20:16:10.040Z,2.83
2019-01-13T20:18:39.269Z,1.77
2019-01-13T20:21:08.957Z,3.37
2019-01-13T20:23:38.755Z,8.17
2019-01-13T20:26:08.717Z,5.50
2019-01-13T20:28:38.528Z,14.57
2019-01-13T20:31:08.524Z,1.83
2019-01-13T20:33:38.397Z,6.97
2019-01-13T20:36:07.764Z,1.83
2019-01-13T20:38:37.468Z,3.00
2019-01-13T20:41:07.400Z,3.07
2019-01-13T20:43:37.963Z,6.27
2019-01-13T20:46:07.932Z,3.17
2019-01-13T20:48:38.052Z,2.80
2019-01-13T20:51:08.147Z,1.90
2019-01-13T20:53:37.972Z,11.50
2019-01-13T20:56:07.992Z,1.97
2019-01-13T20:58:37.821Z,4.80
2019-01-13T21:01:07.176Z,11.20
2019-01-13T21:03:37.216Z,6.97
2019-01-13T21:06:07.121Z,3.40
2019-01-13T21:08:36.947Z,4.90
2019-01-13T21:11:06.829Z,1.67
2019-01-13T21:13:36.202Z,9.83
2019-01-13T21:16:05.606Z,4.73
2019-01-13T21:18:35.361Z,4.60
2019-01-13T21:21:05.324Z,2.57
2019-01-13T21:23:34.678Z,8.70
2019-01-13T21:26:04.532Z,8.73
2019-01-13T21:28:34.336Z,10.57
2019-01-13T21:31:04.273Z,5.13
2019-01-13T21:33:39.901Z,2.30
2019-01-13T21:36:09.239Z,4.47
2019-01-13T21:38:38.957Z,1.77
2019-01-13T21:41:08.804Z,6.20
2019-01-13T21:43:38.633Z,2.60
2019-01-13T21:46:08.032Z,4.27
2019-01-13T21:48:37.736Z,3.17
2019-01-13T21:51:07.640Z,4.60
2019-01-13T21:53:37.523Z,7.13
2019-01-13T21:56:07.388Z,1.30
2019-01-13T21:58:37.202Z,6.27
2019-01-13T22:01:07.680Z,7.53
2019-01-13T22:03:37.744Z,5.45
2019-01-13T22:06:07.626Z,7.30
2019-01-13T22:08:37.437Z,5.43
2019-01-13T22:11:07.396Z,5.63
2019-01-13T22:13:37.208Z,7.93
2019-01-13T22:16:06.569Z,8.20
2019-01-13T22:18:35.804Z,6.90
2019-01-13T22:21:05.755Z,10.77
2019-01-13T22:23:35.353Z,4.50
2019-01-13T22:26:05.120Z,6.87
2019-01-13T22:28:34.471Z,9.17
2019-01-13T22:31:04.239Z,7.80
2019-01-13T22:33:34.045Z,6.53
2019-01-13T22:36:03.403Z,11.17
2019-01-13T22:38:33.089Z,7.23
2019-01-13T22:41:02.525Z,6.20
2019-01-13T22:43:31.743Z,9.00
2019-01-13T22:46:01.464Z,9.33
2019-01-13T22:48:31.280Z,4.70
2019-01-13T22:51:01.183Z,7.97
2019-01-13T22:53:30.535Z,12.77
2019-01-13T22:56:00.304Z,7.70
2019-01-13T22:58:30.136Z,6.53
2019-01-13T23:01:29.472Z,10.03
2019-01-13T23:04:00.527Z,7.60
2019-01-13T23:06:29.835Z,11.30
2019-01-13T23:08:59.524Z,10.90
2019-01-13T23:11:29.416Z,5.90
2019-01-13T23:13:59.226Z,15.20
2019-01-13T23:16:28.615Z,23.83
2019-01-13T23:18:58.312Z,12.33
2019-01-13T23:21:27.671Z,11.27
2019-01-13T23:23:57.427Z,14.90
2019-01-13T23:26:27.316Z,3.73
2019-01-13T23:28:56.837Z,8.97
2019-01-13T23:31:26.651Z,15.43
2019-01-13T23:33:56.576Z,13.77
2019-01-13T23:36:26.525Z,10.07
2019-01-13T23:38:56.349Z,16.10
2019-01-13T23:41:25.712Z,10.83
2019-01-13T23:43:55.553Z,7.67
2019-01-13T23:46:25.340Z,12.77
2019-01-13T23:48:56.888Z,5.90
2019-01-13T23:51:26.861Z,8.63
2019-01-13T23:53:56.291Z,8.73
2019-01-13T23:56:25.989Z,17.13
2019-01-13T23:58:55.817Z,5.83
